Terminal Aerodrome Forecast
Issued by NWS

Home | Current Version | Previous Version | Text Only | Print | Product List | Glossary Off
Versions: 1 2 3 4 5 6 7 8 9 10 11 12 13 14 15 16

936
FTUS41 KCLE 211140
TAFFDY
TAF
KFDY 211140Z 2112/2212 02010KT P6SM VCSH OVC060
     FM211500 01010KT P6SM OVC080
     FM220300 33003KT P6SM BKN200=

USA.gov is the U.S. government's official web portal to all federal, state and local government web resources and services.